Time,TemperatureF,DewpointF,PressureIn,WindDirection,WindDirectionDegrees,WindSpeedMPH,WindSpeedGustMPH,Humidity,HourlyPrecipIn,Conditions,Clouds,dailyrainin,SoftwareType,DateUTC
2013-05-16 00:05:00,68.1,24.0,29.61,NNW,335,0.0,2.0,19,0.00,,,0.00,weatherlink.com 1.10,2013-05-16 06:05:00,
2013-05-16 00:20:00,67.9,23.0,29.61,NNW,333,0.0,1.0,18,0.00,,,0.00,weatherlink.com 1.10,2013-05-16 06:20:00,
2013-05-16 00:35:00,67.3,25.0,29.61,NNW,332,1.0,2.0,20,0.00,,,0.00,weatherlink.com 1.10,2013-05-16 06:35:00,
2013-05-16 00:50:00,69.6,23.0,29.61,WNW,295,1.0,8.0,17,0.00,,,0.00,weatherlink.com 1.10,2013-05-16 06:50:00,
2013-05-16 01:05:00,70.9,22.0,29.61,WSW,243,2.0,12.0,16,0.00,,,0.00,weatherlink.com 1.10,2013-05-16 07:05:00,
2013-05-16 01:20:00,70.8,22.0,29.61,WSW,244,6.0,15.0,16,0.00,,,0.00,weatherlink.com 1.10,2013-05-16 07:20:00,
2013-05-16 01:35:00,70.1,22.0,29.61,WSW,251,4.0,12.0,16,0.00,,,0.00,weatherlink.com 1.10,2013-05-16 07:35:00,
2013-05-16 01:50:00,69.4,23.0,29.61,WNW,284,0.0,6.0,17,0.00,,,0.00,weatherlink.com 1.10,2013-05-16 07:50:00,
2013-05-16 02:05:00,68.3,23.0,29.61,WSW,248,0.0,2.0,18,0.00,,,0.00,weatherlink.com 1.10,2013-05-16 08:05:00,
2013-05-16 02:20:00,66.1,24.0,29.62,SSE,158,0.0,1.0,20,0.00,,,0.00,weatherlink.com 1.10,2013-05-16 08:20:00,
2013-05-16 02:35:00,63.3,24.0,29.62,SE,140,0.0,2.0,22,0.00,,,0.00,weatherlink.com 1.10,2013-05-16 08:35:00,
2013-05-16 02:50:00,63.5,24.0,29.62,South,177,4.0,5.0,22,0.00,,,0.00,weatherlink.com 1.10,2013-05-16 08:50:00,
2013-05-16 03:05:00,62.8,24.0,29.62,South,172,2.0,3.0,23,0.00,,,0.00,weatherlink.com 1.10,2013-05-16 09:05:00,
2013-05-16 03:20:00,61.3,25.0,29.62,South,172,1.0,4.0,25,0.00,,,0.00,weatherlink.com 1.10,2013-05-16 09:20:00,
2013-05-16 03:35:00,60.0,25.0,29.62,South,172,3.0,5.0,26,0.00,,,0.00,weatherlink.com 1.10,2013-05-16 09:35:00,
2013-05-16 03:50:00,60.4,24.0,29.62,South,174,2.0,6.0,25,0.00,,,0.00,weatherlink.com 1.10,2013-05-16 09:50:00,
2013-05-16 04:05:00,59.1,23.0,29.62,SSE,167,2.0,3.0,25,0.00,,,0.00,weatherlink.com 1.10,2013-05-16 10:05:00,
2013-05-16 04:20:00,57.7,24.0,29.62,SSE,164,0.0,3.0,27,0.00,,,0.00,weatherlink.com 1.10,2013-05-16 10:20:00,
2013-05-16 04:35:00,58.6,24.0,29.62,SSE,168,3.0,4.0,26,0.00,,,0.00,weatherlink.com 1.10,2013-05-16 10:35:00,
2013-05-16 04:50:00,58.8,24.0,29.62,SSE,166,3.0,3.0,26,0.00,,,0.00,weatherlink.com 1.10,2013-05-16 10:50:00,
2013-05-16 05:06:00,58.2,23.0,29.62,SSE,168,1.0,4.0,26,0.00,,,0.00,weatherlink.com 1.10,2013-05-16 11:06:00,
2013-05-16 05:21:00,57.4,23.0,29.62,SSE,167,1.0,3.0,27,0.00,,,0.00,weatherlink.com 1.10,2013-05-16 11:21:00,
2013-05-16 05:36:00,56.6,23.0,29.63,SSE,163,2.0,4.0,27,0.00,,,0.00,weatherlink.com 1.10,2013-05-16 11:36:00,
2013-05-16 05:51:00,56.8,23.0,29.63,SSE,168,2.0,5.0,27,0.00,,,0.00,weatherlink.com 1.10,2013-05-16 11:51:00,
2013-05-16 06:06:00,57.5,24.0,29.63,SSE,155,3.0,5.0,28,0.00,,,0.00,weatherlink.com 1.10,2013-05-16 12:06:00,
2013-05-16 06:21:00,57.3,24.0,29.64,South,191,1.0,5.0,28,0.00,,,0.00,weatherlink.com 1.10,2013-05-16 12:21:00,
2013-05-16 06:36:00,57.3,24.0,29.64,SE,142,2.0,4.0,28,0.00,,,0.00,weatherlink.com 1.10,2013-05-16 12:36:00,
2013-05-16 06:51:00,57.6,24.0,29.64,South,175,0.0,4.0,27,0.00,,,0.00,weatherlink.com 1.10,2013-05-16 12:51:00,
2013-05-16 07:06:00,58.3,24.0,29.65,South,180,0.0,2.0,27,0.00,,,0.00,weatherlink.com 1.10,2013-05-16 13:06:00,
2013-05-16 07:21:00,59.9,25.0,29.65,SSE,148,0.0,1.0,26,0.00,,,0.00,weatherlink.com 1.10,2013-05-16 13:21:00,
2013-05-16 07:36:00,62.0,26.0,29.66,SSE,167,0.0,2.0,25,0.00,,,0.00,weatherlink.com 1.10,2013-05-16 13:36:00,
2013-05-16 07:51:00,63.7,25.0,29.66,South,169,1.0,4.0,23,0.00,,,0.00,weatherlink.com 1.10,2013-05-16 13:51:00,
2013-05-16 08:06:00,65.2,25.0,29.66,SSE,165,3.0,6.0,22,0.00,,,0.00,weatherlink.com 1.10,2013-05-16 14:06:00,
2013-05-16 08:21:00,66.3,24.0,29.66,South,175,5.0,5.0,20,0.00,,,0.00,weatherlink.com 1.10,2013-05-16 14:21:00,
2013-05-16 08:36:00,67.4,24.0,29.66,SW,221,2.0,5.0,19,0.00,,,0.00,weatherlink.com 1.10,2013-05-16 14:36:00,
2013-05-16 08:51:00,68.5,25.0,29.66,West,275,0.0,4.0,19,0.00,,,0.00,weatherlink.com 1.10,2013-05-16 14:51:00,
2013-05-16 09:06:00,69.8,24.0,29.66,SSW,200,3.0,7.0,18,0.00,,,0.00,weatherlink.com 1.10,2013-05-16 15:06:00,
2013-05-16 09:21:00,70.4,23.0,29.66,SW,215,3.0,7.0,17,0.00,,,0.00,weatherlink.com 1.10,2013-05-16 15:21:00,
2013-05-16 09:36:00,70.5,24.0,29.66,WSW,244,5.0,8.0,17,0.00,,,0.00,weatherlink.com 1.10,2013-05-16 15:36:00,
2013-05-16 09:51:00,71.3,24.0,29.66,WSW,257,5.0,7.0,17,0.00,,,0.00,weatherlink.com 1.10,2013-05-16 15:51:00,
2013-05-16 10:06:00,72.6,24.0,29.66,WSW,250,1.0,6.0,16,0.00,,,0.00,weatherlink.com 1.10,2013-05-16 16:06:00,
2013-05-16 10:21:00,73.7,25.0,29.65,SW,227,2.0,7.0,16,0.00,,,0.00,weatherlink.com 1.10,2013-05-16 16:21:00,
2013-05-16 10:36:00,75.3,23.0,29.65,WSW,249,6.0,6.0,14,0.00,,,0.00,weatherlink.com 1.10,2013-05-16 16:36:00,
2013-05-16 10:51:00,75.8,21.0,29.64,WSW,248,2.0,7.0,13,0.00,,,0.00,weatherlink.com 1.10,2013-05-16 16:51:00,
2013-05-16 11:06:00,77.5,21.0,29.64,SSW,192,3.0,4.0,12,0.00,,,0.00,weatherlink.com 1.10,2013-05-16 17:06:00,
2013-05-16 11:21:00,78.2,23.0,29.64,ESE,121,3.0,9.0,13,0.00,,,0.00,weatherlink.com 1.10,2013-05-16 17:21:00,
2013-05-16 11:36:00,79.6,23.0,29.63,SW,236,1.0,8.0,12,0.00,,,0.00,weatherlink.com 1.10,2013-05-16 17:36:00,
2013-05-16 11:51:00,79.3,20.0,29.63,WSW,247,2.0,9.0,11,0.00,,,0.00,weatherlink.com 1.10,2013-05-16 17:51:00,
2013-05-16 12:06:00,79.9,23.0,29.62,WSW,253,6.0,6.0,12,0.00,,,0.00,weatherlink.com 1.10,2013-05-16 18:06:00,
2013-05-16 12:21:00,80.5,21.0,29.61,West,275,4.0,8.0,11,0.00,,,0.00,weatherlink.com 1.10,2013-05-16 18:21:00,
2013-05-16 12:36:00,82.1,20.0,29.59,SE,141,1.0,7.0,10,0.00,,,0.00,weatherlink.com 1.10,2013-05-16 18:36:00,
2013-05-16 12:51:00,82.0,18.0,29.58,SSE,151,0.0,9.0,9,0.00,,,0.00,weatherlink.com 1.10,2013-05-16 18:51:00,
2013-05-16 13:06:00,82.1,12.0,29.58,SSW,193,4.0,14.0,7,0.00,,,0.00,weatherlink.com 1.10,2013-05-16 19:06:00,
2013-05-16 13:21:00,82.5,12.0,29.57,South,180,0.0,17.0,7,0.00,,,0.00,weatherlink.com 1.10,2013-05-16 19:21:00,
2013-05-16 13:36:00,83.5,16.0,29.57,SSW,200,3.0,17.0,8,0.00,,,0.00,weatherlink.com 1.10,2013-05-16 19:36:00,
2013-05-16 13:51:00,84.5,14.0,29.57,SW,236,4.0,16.0,7,0.00,,,0.00,weatherlink.com 1.10,2013-05-16 19:51:00,
2013-05-16 14:07:00,84.4,14.0,29.56,SW,234,9.0,16.0,7,0.00,,,0.00,weatherlink.com 1.10,2013-05-16 20:07:00,
2013-05-16 14:22:00,84.7,10.0,29.55,SSW,209,4.0,15.0,6,0.00,,,0.00,weatherlink.com 1.10,2013-05-16 20:22:00,
2013-05-16 14:37:00,85.6,11.0,29.55,WSW,257,8.0,19.0,6,0.00,,,0.00,weatherlink.com 1.10,2013-05-16 20:37:00,
2013-05-16 14:52:00,85.7,11.0,29.54,West,278,6.0,14.0,6,0.00,,,0.00,weatherlink.com 1.10,2013-05-16 20:52:00,
2013-05-16 15:07:00,84.9,14.0,29.53,SSW,205,7.0,14.0,7,0.00,,,0.00,weatherlink.com 1.10,2013-05-16 21:07:00,
2013-05-16 15:22:00,84.9,7.0,29.53,WSW,254,7.0,19.0,5,0.00,,,0.00,weatherlink.com 1.10,2013-05-16 21:22:00,
2013-05-16 15:37:00,86.5,8.0,29.52,WSW,244,14.0,18.0,5,0.00,,,0.00,weatherlink.com 1.10,2013-05-16 21:37:00,
2013-05-16 15:52:00,85.6,7.0,29.51,SSW,212,9.0,19.0,5,0.00,,,0.00,weatherlink.com 1.10,2013-05-16 21:52:00,
2013-05-16 16:07:00,85.8,7.0,29.51,SW,235,2.0,18.0,5,0.00,,,0.00,weatherlink.com 1.10,2013-05-16 22:07:00,
2013-05-16 16:22:00,86.3,3.0,29.50,WSW,254,12.0,18.0,4,0.00,,,0.00,weatherlink.com 1.10,2013-05-16 22:22:00,
2013-05-16 16:37:00,86.3,3.0,29.50,WSW,248,7.0,16.0,4,0.00,,,0.00,weatherlink.com 1.10,2013-05-16 22:37:00,
2013-05-16 16:52:00,86.8,3.0,29.49,SSW,206,5.0,15.0,4,0.00,,,0.00,weatherlink.com 1.10,2013-05-16 22:52:00,
2013-05-16 17:07:00,86.5,3.0,29.49,West,261,11.0,15.0,4,0.00,,,0.00,weatherlink.com 1.10,2013-05-16 23:07:00,
2013-05-16 17:22:00,86.3,-4.0,29.48,WNW,286,12.0,15.0,3,0.00,,,0.00,weatherlink.com 1.10,2013-05-16 23:22:00,
2013-05-16 17:37:00,86.0,2.0,29.48,WSW,246,11.0,16.0,4,0.00,,,0.00,weatherlink.com 1.10,2013-05-16 23:37:00,
2013-05-16 17:52:00,86.1,-4.0,29.48,WSW,243,7.0,18.0,3,0.00,,,0.00,weatherlink.com 1.10,2013-05-16 23:52:00,
2013-05-16 18:07:00,85.4,-4.0,29.48,WNW,282,13.0,19.0,3,0.00,,,0.00,weatherlink.com 1.10,2013-05-17 00:07:00,
2013-05-16 18:22:00,86.3,3.0,29.47,WSW,242,8.0,13.0,4,0.00,,,0.00,weatherlink.com 1.10,2013-05-17 00:22:00,
2013-05-16 18:37:00,85.3,2.0,29.47,West,271,7.0,16.0,4,0.00,,,0.00,weatherlink.com 1.10,2013-05-17 00:37:00,
2013-05-16 18:52:00,84.8,2.0,29.47,WNW,298,6.0,19.0,4,0.00,,,0.00,weatherlink.com 1.10,2013-05-17 00:52:00,
2013-05-16 19:08:00,84.5,-5.0,29.47,WSW,258,8.0,17.0,3,0.00,,,0.00,weatherlink.com 1.10,2013-05-17 01:08:00,
2013-05-16 19:23:00,83.9,-5.0,29.47,WSW,245,6.0,16.0,3,0.00,,,0.00,weatherlink.com 1.10,2013-05-17 01:23:00,
2013-05-16 19:38:00,83.1,-6.0,29.47,West,263,7.0,16.0,3,0.00,,,0.00,weatherlink.com 1.10,2013-05-17 01:38:00,
2013-05-16 19:53:00,82.1,0.0,29.48,West,260,11.0,16.0,4,0.00,,,0.00,weatherlink.com 1.10,2013-05-17 01:53:00,
2013-05-16 20:08:00,81.2,-1.0,29.48,West,269,3.0,13.0,4,0.00,,,0.00,weatherlink.com 1.10,2013-05-17 02:08:00,
2013-05-16 20:23:00,80.1,3.0,29.48,WNW,301,4.0,11.0,5,0.00,,,0.00,weatherlink.com 1.10,2013-05-17 02:23:00,
2013-05-16 20:38:00,79.4,3.0,29.48,West,277,6.0,14.0,5,0.00,,,0.00,weatherlink.com 1.10,2013-05-17 02:38:00,
2013-05-16 20:53:00,79.2,2.0,29.48,West,275,3.0,10.0,5,0.00,,,0.00,weatherlink.com 1.10,2013-05-17 02:53:00,
2013-05-16 21:08:00,78.3,6.0,29.49,WNW,283,0.0,6.0,6,0.00,,,0.00,weatherlink.com 1.10,2013-05-17 03:08:00,
2013-05-16 21:23:00,77.0,8.0,29.49,West,279,0.0,1.0,7,0.00,,,0.00,weatherlink.com 1.10,2013-05-17 03:23:00,
2013-05-16 21:44:00,74.8,12.0,29.50,West,279,0.0,0.0,9,0.00,,,0.00,weatherlink.com 1.10,2013-05-17 03:44:00,
2013-05-16 21:53:00,73.6,11.0,29.50,West,279,0.0,0.0,9,0.00,,,0.00,weatherlink.com 1.10,2013-05-17 03:53:00,
2013-05-16 22:08:00,72.3,13.0,29.51,West,279,0.0,1.0,10,0.00,,,0.00,weatherlink.com 1.10,2013-05-17 04:08:00,
2013-05-16 22:24:00,72.7,10.0,29.52,NW,306,0.0,3.0,9,0.00,,,0.00,weatherlink.com 1.10,2013-05-17 04:24:00,
2013-05-16 22:39:00,71.6,14.0,29.52,NW,306,0.0,0.0,11,0.00,,,0.00,weatherlink.com 1.10,2013-05-17 04:39:00,
2013-05-16 22:54:00,70.1,15.0,29.52,NW,306,0.0,1.0,12,0.00,,,0.00,weatherlink.com 1.10,2013-05-17 04:54:00,
2013-05-16 23:09:00,70.1,15.0,29.53,WNW,290,0.0,2.0,12,0.00,,,0.00,weatherlink.com 1.10,2013-05-17 05:09:00,
2013-05-16 23:24:00,70.5,13.0,29.54,WNW,287,0.0,1.0,11,0.00,,,0.00,weatherlink.com 1.10,2013-05-17 05:24:00,
2013-05-16 23:39:00,67.5,11.0,29.54,WNW,287,0.0,0.0,11,0.00,,,0.00,weatherlink.com 1.10,2013-05-17 05:39:00,
2013-05-16 23:54:00,65.1,13.0,29.55,WNW,287,0.0,0.0,13,0.00,,,0.00,weatherlink.com 1.10,2013-05-17 05:54:00,